Flight Track Log - Related Links

Times and Time Zones

All times are in EDT time to prevent confusion due to time zone crossing. See the EJA618 flight status page for this flight to view local times or setup timezone preferences in your user account.

Time Position Orientation Groundspeed Altitude Reporting Facility
EDT Latitude Longitude Course Direction KTS MPH feet Rate Location/Type
Sun 02:22:47 PM 40.2558 -79.4839 269° West 215 247 5,100  Level Cleveland Center
Sun 02:24:24 PM 40.2547 -79.6011 269° West 209 241 8,000 2,369 Climbing Cleveland Center
Sun 02:25:24 PM 40.2533 -79.6908 269° West 236 272 11,300 3,100 Climbing Cleveland Center
Sun 02:26:24 PM 40.2500 -79.7781 267° West 250 288 14,200 2,650 Climbing Cleveland Center
Sun 02:27:24 PM 40.2483 -79.8650 269° West 250 288 16,600 1,900 Climbing Cleveland Center
Sun 02:28:24 PM 40.2467 -79.9519 269° West 250 288 18,000 1,250 Climbing Cleveland Center
Sun 02:29:24 PM 40.2411 -80.0664 266° West 278 320 19,100 1,050 Climbing Cleveland Center
Sun 02:30:24 PM 40.2394 -80.1778 269° West 293 337 20,100 1,000 Climbing Cleveland Center
Sun 02:31:24 PM 40.2378 -80.2947 269° West 311 358 21,100 1,018 Climbing Cleveland Center
Sun 02:33:09 PM 40.2297 -80.5119 267° West 349 402 22,900 1,222 Climbing Indianapolis Center
Sun 02:34:11 PM 40.2247 -80.6431 267° West 356 410 24,500 1,258 Climbing Indianapolis Center
Sun 02:35:13 PM 40.1961 -80.7656 253° West 352 405 25,500 992 Climbing Indianapolis Center
Sun 02:36:24 PM 40.1564 -80.9144 251° West 359 413 26,700 1,008 Climbing Cleveland Center
Sun 02:37:24 PM 40.1225 -81.0364 250° West 365 420 27,700 991 Climbing Cleveland Center
Sun 02:38:19 PM 40.0917 -81.1372 248° West 360 414 28,600 983 Climbing Indianapolis Center
Sun 02:39:20 PM 40.0564 -81.2642 250° West 366 421 29,600 976 Climbing Indianapolis Center
Sun 02:40:22 PM 40.0206 -81.3906 250° West 367 422 30,600 1,065 Climbing Indianapolis Center
Sun 02:41:24 PM 39.9794 -81.5361 250° West 365 420 31,800 1,065 Climbing Indianapolis Center
Sun 02:42:26 PM 39.9433 -81.6614 249° West 359 413 32,800 968 Climbing Indianapolis Center
Sun 02:43:28 PM 39.9072 -81.7828 249° West 357 411 33,800 968 Climbing Indianapolis Center
Sun 02:44:30 PM 39.8725 -81.9039 250° West 355 409 34,800 968 Climbing Indianapolis Center
Sun 02:45:32 PM 39.8372 -82.0239 249° West 353 406 35,800 968 Climbing Indianapolis Center
Sun 02:46:34 PM 39.8031 -82.1433 250° West 348 400 36,800 968 Climbing Indianapolis Center
Sun 02:47:36 PM 39.7675 -82.2619 249° West 350 403 37,800 968 Climbing Indianapolis Center
Sun 02:48:38 PM 39.7317 -82.3831 249° West 355 409 38,800 968 Climbing Indianapolis Center
Sun 02:49:40 PM 39.6961 -82.5025 249° West 352 405 39,800 581 Climbing Indianapolis Center
Sun 02:50:42 PM 39.6389 -82.6308 240° Southwest 350 403 40,000 97 Climbing Indianapolis Center
Sun 02:51:44 PM 39.5861 -82.7472 240° Southwest 366 421 40,000  Level Indianapolis Center
Sun 02:52:47 PM 39.5331 -82.8669 240° Southwest 377 434 40,000  Level Indianapolis Center
Sun 02:53:49 PM 39.4781 -82.9881 240° Southwest 384 442 40,000  Level Indianapolis Center
Sun 02:54:51 PM 39.4247 -83.1067 240° Southwest 377 434 40,000  Level Indianapolis Center
Sun 02:55:53 PM 39.3697 -83.2264 239° Southwest 381 438 40,000  Level Indianapolis Center
Sun 02:56:55 PM 39.3153 -83.3472 240° Southwest 383 441 40,000  Level Indianapolis Center
Sun 02:57:57 PM 39.2583 -83.4697 239° Southwest 390 449 40,000  Level Indianapolis Center
Sun 02:58:59 PM 39.2022 -83.5922 239° Southwest 393 452 40,000  Level Indianapolis Center
Sun 03:00:01 PM 39.1369 -83.7347 239° Southwest 391 450 40,000  Level Indianapolis Center
Sun 03:01:03 PM 39.0797 -83.8564 239° Southwest 393 452 40,000  Level Indianapolis Center
Sun 03:02:05 PM 39.0236 -83.9789 240° Southwest 393 452 40,000  Level Indianapolis Center
Sun 03:03:07 PM 38.9669 -84.1011 239° Southwest 393 452 40,000  Level Indianapolis Center
Sun 03:04:09 PM 38.9100 -84.2214 239° Southwest 392 451 40,000  Level Indianapolis Center
Sun 03:05:11 PM 38.8514 -84.3442 239° Southwest 399 459 40,000  Level Indianapolis Center
Sun 03:06:13 PM 38.7942 -84.4675 239° Southwest 398 458 40,000  Level Indianapolis Center
Sun 03:07:15 PM 38.7272 -84.6075 239° Southwest 403 464 40,000  Level Indianapolis Center
Sun 03:08:17 PM 38.6686 -84.7286 238° Southwest 401 461 40,000  Level Indianapolis Center
Sun 03:09:19 PM 38.6119 -84.8472 239° Southwest 401 461 40,000  Level Indianapolis Center
Sun 03:10:21 PM 38.5533 -84.9697 239° Southwest 403 464 40,000  Level Indianapolis Center
Sun 03:11:23 PM 38.4856 -85.1103 238° Southwest 400 460 40,000  Level Indianapolis Center
Sun 03:12:25 PM 38.4339 -85.2164 238° Southwest 402 463 40,000  Level Indianapolis Center
Sun 03:13:27 PM 38.3758 -85.3372 239° Southwest 399 459 40,000  Level Indianapolis Center
Sun 03:14:29 PM 38.3047 -85.4833 238° Southwest 400 460 40,000  Level Indianapolis Center
Sun 03:15:31 PM 38.2442 -85.6039 237° Southwest 400 460 40,000  Level Indianapolis Center
Sun 03:16:33 PM 38.1858 -85.7256 239° Southwest 400 460 40,000  Level Indianapolis Center
Sun 03:17:35 PM 38.1258 -85.8458 238° Southwest 401 461 40,000  Level Indianapolis Center
Sun 03:18:37 PM 38.0669 -85.9664 238° Southwest 402 463 40,000  Level Indianapolis Center
Sun 03:19:39 PM 38.0067 -86.0856 237° Southwest 399 459 40,000  Level Indianapolis Center
Sun 03:20:41 PM 37.9456 -86.2064 237° Southwest 403 464 40,000  Level Indianapolis Center
Sun 03:21:43 PM 37.8858 -86.3267 238° Southwest 401 461 40,000  Level Indianapolis Center
Sun 03:22:45 PM 37.8125 -86.4722 238° Southwest 404 465 40,000  Level Indianapolis Center
Sun 03:23:47 PM 37.7519 -86.5928 238° Southwest 404 465 40,000  Level Indianapolis Center
Sun 03:24:49 PM 37.6908 -86.7128 237° Southwest 403 464 40,000  Level Indianapolis Center
Sun 03:25:51 PM 37.6286 -86.8333 237° Southwest 405 466 40,000  Level Indianapolis Center
Sun 03:26:53 PM 37.5675 -86.9547 238° Southwest 407 468 40,000  Level Indianapolis Center
Sun 03:27:55 PM 37.5025 -87.0800 237° Southwest 407 468 40,000  Level Indianapolis Center
Sun 03:28:57 PM 37.4408 -87.2006 237° Southwest 408 470 40,000  Level Indianapolis Center
Sun 03:29:59 PM 37.3789 -87.3208 237° Southwest 408 470 40,000  Level Indianapolis Center
Sun 03:31:00 PM 37.3164 -87.4417 237° Southwest 408 470 40,000  Level Indianapolis Center
Sun 03:32:02 PM 37.2447 -87.5797 237° Southwest 405 466 40,000  Level Indianapolis Center
Sun 03:32:50 PM 37.2047 -87.6642 239° Southwest 411 473 40,000  Level Memphis Center
Sun 03:33:50 PM 37.1425 -87.7781 236° Southwest 411 473 40,000  Level Memphis Center
Sun 03:34:50 PM 37.0803 -87.8944 236° Southwest 406 467 40,000  Level Memphis Center
Sun 03:35:50 PM 37.0200 -88.0133 238° Southwest 406 467 40,000  Level Memphis Center
Sun 03:36:50 PM 36.9597 -88.1294 237° Southwest 406 467 40,000  Level Memphis Center
Sun 03:37:50 PM 36.8953 -88.2478 236° Southwest 406 467 40,000  Level Memphis Center
Sun 03:38:50 PM 36.8344 -88.3608 236° Southwest 406 467 40,000  Level Memphis Center
Sun 03:39:50 PM 36.7697 -88.4817 236° Southwest 406 467 40,000  Level Memphis Center
Sun 03:40:50 PM 36.7069 -88.6022 237° Southwest 411 473 40,000  Level Memphis Center
Sun 03:41:50 PM 36.6417 -88.7200 235° Southwest 417 480 40,000  Level Memphis Center
Sun 03:42:50 PM 36.5744 -88.8378 235° Southwest 417 480 40,000  Level Memphis Center
Sun 03:43:50 PM 36.5133 -88.9575 238° Southwest 417 480 40,000  Level Memphis Center
Sun 03:44:50 PM 36.4478 -89.0697 234° Southwest 417 480 40,000  Level Memphis Center
Sun 03:45:50 PM 36.3742 -89.2047 236° Southwest 428 493 40,000  Level Memphis Center
Sun 03:46:50 PM 36.3169 -89.3189 238° Southwest 435 501 40,000  Level Memphis Center
Sun 03:47:50 PM 36.2344 -89.4564 233° Southwest 452 520 40,000  Level Memphis Center
Sun 03:48:50 PM 36.1708 -89.5753 236° Southwest 441 507 40,000  Level Memphis Center
Sun 03:49:50 PM 36.1067 -89.6942 236° Southwest 429 494 40,000  Level Memphis Center
Sun 03:50:50 PM 36.0386 -89.8153 235° Southwest 429 494 40,000  Level Memphis Center
Sun 03:51:50 PM 35.9722 -89.9339 235° Southwest 429 494 40,000  Level Memphis Center
Sun 03:52:50 PM 35.9039 -90.0547 235° Southwest 429 494 40,000  Level Memphis Center
Sun 03:53:50 PM 35.8372 -90.1753 236° Southwest 429 494 40,000  Level Memphis Center
Sun 03:54:50 PM 35.7708 -90.2931 235° Southwest 429 494 40,000  Level Memphis Center
Sun 03:55:50 PM 35.7039 -90.4108 235° Southwest 429 494 40,000  Level Memphis Center
Sun 03:56:50 PM 35.6433 -90.5308 238° Southwest 415 478 40,000  Level Memphis Center
Sun 03:57:50 PM 35.5744 -90.6481 234° Southwest 422 486 40,000  Level Memphis Center
Sun 03:58:50 PM 35.5053 -90.7703 235° Southwest 427 491 40,000  Level Memphis Center
Sun 03:59:50 PM 35.4358 -90.8897 235° Southwest 434 499 40,000  Level Memphis Center
Sun 04:00:50 PM 35.3667 -91.0114 235° Southwest 434 499 40,000  Level Memphis Center
Sun 04:01:50 PM 35.3033 -91.1153 233° Southwest 439 505 40,000  Level Memphis Center
Sun 04:02:50 PM 35.2358 -91.2342 235° Southwest 434 499 40,000  Level Memphis Center
Sun 04:03:50 PM 35.1642 -91.3553 234° Southwest 434 499 40,000  Level Memphis Center
Sun 04:04:50 PM 35.0922 -91.4764 234° Southwest 442 509 40,000  Level Memphis Center
Sun 04:05:50 PM 35.0222 -91.5944 234° Southwest 442 509 40,000  Level Memphis Center
Sun 04:06:50 PM 34.9519 -91.7178 235° Southwest 447 514 40,000  Level Memphis Center
Sun 04:07:50 PM 34.8797 -91.8356 233° Southwest 447 514 40,000  Level Memphis Center
Sun 04:08:50 PM 34.8094 -91.9581 235° Southwest 447 514 40,000  Level Memphis Center
Sun 04:09:50 PM 34.7369 -92.0756 233° Southwest 447 514 40,000  Level Memphis Center
Sun 04:10:50 PM 34.6725 -92.2006 238° Southwest 442 509 40,000  Level Memphis Center
Sun 04:11:50 PM 34.6328 -92.3461 252° West 442 509 40,000 -250 Level Memphis Center
Sun 04:12:50 PM 34.5950 -92.4864 252° West 442 509 39,500  Descending Memphis Center
Sun 04:13:50 PM 34.5592 -92.6217 252° West 442 509 40,000 250 Climbing Memphis Center
Sun 04:14:50 PM 34.5233 -92.7569 252° West 436 502 40,000  Level Memphis Center
Sun 04:15:50 PM 34.4872 -92.8969 253° West 436 502 40,000  Level Memphis Center
Sun 04:16:50 PM 34.4508 -93.0319 252° West 431 496 40,000  Level Memphis Center
Sun 04:17:50 PM 34.4125 -93.1692 251° West 431 496 40,000  Level Memphis Center
Sun 04:18:50 PM 34.3781 -93.2989 252° West 424 488 40,000  Level Memphis Center
Sun 04:19:53 PM 34.3406 -93.4597 254° West 414 476 40,000  Level Fort Worth Center
Sun 04:20:53 PM 34.3011 -93.5972 251° West 420 483 40,000  Level Fort Worth Center
Sun 04:21:53 PM 34.2633 -93.7322 251° West 431 496 40,000  Level Fort Worth Center
Sun 04:22:53 PM 34.2256 -93.8694 252° West 431 496 40,000  Level Fort Worth Center
Sun 04:23:53 PM 34.1878 -94.0064 252° West 431 496 40,000 -350 Level Fort Worth Center
Sun 04:24:53 PM 34.1389 -94.1389 246° West 431 496 39,300 -850 Descending Fort Worth Center
Sun 04:25:53 PM 34.0881 -94.2686 245° Southwest 436 502 38,300 -1,000 Descending Fort Worth Center
Sun 04:26:53 PM 34.0372 -94.4033 246° West 436 502 37,300 -1,000 Descending Fort Worth Center
Sun 04:27:53 PM 33.9839 -94.5381 245° Southwest 441 507 36,300 -1,150 Descending Fort Worth Center
Sun 04:28:53 PM 33.9328 -94.6697 245° Southwest 441 507 35,000 -1,400 Descending Fort Worth Center
Sun 04:29:53 PM 33.8811 -94.8017 245° Southwest 441 507 33,500 -1,500 Descending Fort Worth Center
Sun 04:30:53 PM 33.8275 -94.9356 244° Southwest 441 507 32,000 -1,450 Descending Fort Worth Center
Sun 04:31:53 PM 33.7739 -95.0672 244° Southwest 446 513 30,600 -1,450 Descending Fort Worth Center
Sun 04:32:53 PM 33.7219 -95.1983 245° Southwest 446 513 29,100 -1,500 Descending Fort Worth Center
Sun 04:33:53 PM 33.6697 -95.3294 244° Southwest 446 513 27,600 -1,450 Descending Fort Worth Center
Sun 04:34:53 PM 33.6136 -95.4681 244° Southwest 451 519 26,200 -1,500 Descending Fort Worth Center
Sun 04:35:53 PM 33.5614 -95.6011 245° Southwest 451 519 24,600 -1,900 Descending Fort Worth Center
Sun 04:36:53 PM 33.5108 -95.7294 245° Southwest 440 506 22,400 -2,800 Descending Fort Worth Center
Sun 04:37:53 PM 33.4583 -95.8572 244° Southwest 428 493 19,000 -3,100 Descending Fort Worth Center
Sun 04:38:53 PM 33.4178 -95.9600 245° Southwest 408 470 16,200 -3,050 Descending Fort Worth Center
Sun 04:39:53 PM 33.3669 -96.0803 243° Southwest 370 426 12,900 -2,850 Descending Fort Worth Center
Sun 04:40:53 PM 33.3303 -96.1728 245° Southwest 356 410 10,500 -1,950 Descending Fort Worth Center
Sun 04:41:53 PM 33.2894 -96.2728 244° Southwest 319 367 9,000 -1,250 Descending Fort Worth Center
Sun 04:42:53 PM 33.2547 -96.3478 241° Southwest 303 349 8,000 -1,300 Descending Fort Worth Center
Sun 04:43:53 PM 33.2117 -96.4375 240° Southwest 287 330 6,400 -1,650 Descending Fort Worth Center
Sun 04:44:53 PM 33.1767 -96.5100 240° Southwest 279 321 4,700 -1,200 Descending Fort Worth Center
Sun 04:45:53 PM 33.1397 -96.5872 240° Southwest 279 321 4,000 -350 Descending Fort Worth Center
Sun 04:46:53 PM 33.1006 -96.6719 241° Southwest 271 312 4,000  Level Fort Worth Center
Sun 04:47:53 PM 33.0717 -96.7317 240° Southwest 246 283 4,000  Level Fort Worth Center
Sun 04:48:53 PM 33.0281 -96.7989 232° Southwest 240 276 4,000 -150 Level Fort Worth Center
Sun 04:49:53 PM 32.9867 -96.8389 219° Southwest 225 259 3,700 -550 Descending Fort Worth Center
Sun 04:50:53 PM 32.9408 -96.8811 218° Southwest 202 232 2,900 -1,000 Descending Fort Worth Center
Sun 04:51:53 PM 32.9033 -96.9011 204° Southwest 179 206 1,700 -1,000 Descending Fort Worth Center
Sun 04:52:53 PM 32.8739 -96.8767 145° Southeast 125 144 900 -450 Descending Fort Worth Center
Sun 04:53:53 PM 32.8425 -96.8619 158° South 125 144 800 -100 Descending Fort Worth Center

Login

Don't have an account? Register now (free) for customized features, flight alerts, and more!